sensor_id;sensor_type;location;lat;lon;timestamp;pressure;altitude;pressure_sealevel;temperature;humidity
50166;BME280;36071;48.140;11.516;2023-02-14T00:03:27;97320.0;;;0.9;89.0
50166;BME280;36071;48.140;11.516;2023-02-14T00:08:27;97310.0;;;0.8;90.7
50166;BME280;36071;48.140;11.516;2023-02-14T00:13:28;97320.0;;;0.9;89.3
50166;BME280;36071;48.140;11.516;2023-02-14T00:18:27;97320.0;;;0.9;88.9
50166;BME280;36071;48.140;11.516;2023-02-14T00:23:27;97330.0;;;0.8;89.0
50166;BME280;36071;48.140;11.516;2023-02-14T00:28:27;97330.0;;;0.8;89.9
50166;BME280;36071;48.140;11.516;2023-02-14T00:33:27;97320.0;;;0.9;89.4
50166;BME280;36071;48.140;11.516;2023-02-14T00:38:27;97330.0;;;0.9;89.8
50166;BME280;36071;48.140;11.516;2023-02-14T00:43:28;97330.0;;;1.0;89.5
50166;BME280;36071;48.140;11.516;2023-02-14T00:48:27;97330.0;;;0.9;89.7
50166;BME280;36071;48.140;11.516;2023-02-14T00:53:27;97320.0;;;0.8;90.4
50166;BME280;36071;48.140;11.516;2023-02-14T00:58:28;97320.0;;;1.0;90.9
50166;BME280;36071;48.140;11.516;2023-02-14T01:03:28;97330.0;;;1.0;89.1
50166;BME280;36071;48.140;11.516;2023-02-14T01:08:27;97330.0;;;1.0;89.6
50166;BME280;36071;48.140;11.516;2023-02-14T01:13:28;97340.0;;;0.9;90.7
50166;BME280;36071;48.140;11.516;2023-02-14T01:18:27;97330.0;;;0.8;90.3
50166;BME280;36071;48.140;11.516;2023-02-14T01:23:27;97320.0;;;1.0;89.4
50166;BME280;36071;48.140;11.516;2023-02-14T01:28:28;97320.0;;;0.8;92.0
50166;BME280;36071;48.140;11.516;2023-02-14T01:33:27;97320.0;;;0.9;88.8
50166;BME280;36071;48.140;11.516;2023-02-14T01:38:27;97330.0;;;0.9;89.5
50166;BME280;36071;48.140;11.516;2023-02-14T01:43:29;97340.0;;;0.9;90.7
50166;BME280;36071;48.140;11.516;2023-02-14T01:48:27;97330.0;;;0.9;89.6
50166;BME280;36071;48.140;11.516;2023-02-14T01:53:27;97340.0;;;0.8;90.4
50166;BME280;36071;48.140;11.516;2023-02-14T01:58:28;97330.0;;;0.8;89.6
50166;BME280;36071;48.140;11.516;2023-02-14T02:03:29;97340.0;;;0.6;91.5
50166;BME280;36071;48.140;11.516;2023-02-14T02:08:27;97330.0;;;0.8;90.3
50166;BME280;36071;48.140;11.516;2023-02-14T02:13:27;97330.0;;;0.8;89.1
50166;BME280;36071;48.140;11.516;2023-02-14T02:18:31;97340.0;;;0.7;90.3
50166;BME280;36071;48.140;11.516;2023-02-14T02:23:42;97330.0;;;0.5;91.2
50166;BME280;36071;48.140;11.516;2023-02-14T02:28:32;97340.0;;;0.5;90.4
50166;BME280;36071;48.140;11.516;2023-02-14T02:33:34;97320.0;;;0.6;89.0
50166;BME280;36071;48.140;11.516;2023-02-14T02:38:32;97330.0;;;0.6;89.6
50166;BME280;36071;48.140;11.516;2023-02-14T02:43:29;97320.0;;;0.5;90.0
50166;BME280;36071;48.140;11.516;2023-02-14T02:48:30;97310.0;;;0.6;90.0
50166;BME280;36071;48.140;11.516;2023-02-14T02:53:28;97300.0;;;0.5;89.0
50166;BME280;36071;48.140;11.516;2023-02-14T02:58:29;97310.0;;;0.4;89.5
50166;BME280;36071;48.140;11.516;2023-02-14T03:03:27;97310.0;;;0.4;89.9
50166;BME280;36071;48.140;11.516;2023-02-14T03:08:27;97300.0;;;0.4;90.0
50166;BME280;36071;48.140;11.516;2023-02-14T03:13:31;97310.0;;;0.4;89.9
50166;BME280;36071;48.140;11.516;2023-02-14T03:18:44;97310.0;;;0.3;91.1
50166;BME280;36071;48.140;11.516;2023-02-14T03:23:28;97300.0;;;0.6;89.5
50166;BME280;36071;48.140;11.516;2023-02-14T03:28:29;97310.0;;;0.6;88.9
50166;BME280;36071;48.140;11.516;2023-02-14T03:33:28;97310.0;;;0.3;90.0
50166;BME280;36071;48.140;11.516;2023-02-14T03:38:28;97310.0;;;0.4;91.1
50166;BME280;36071;48.140;11.516;2023-02-14T03:43:28;97300.0;;;0.3;89.8
50166;BME280;36071;48.140;11.516;2023-02-14T03:48:28;97310.0;;;0.3;90.2
50166;BME280;36071;48.140;11.516;2023-02-14T03:53:28;97320.0;;;0.2;90.0
50166;BME280;36071;48.140;11.516;2023-02-14T03:58:29;97320.0;;;0.1;88.7
50166;BME280;36071;48.140;11.516;2023-02-14T04:03:28;97320.0;;;0.1;88.4
50166;BME280;36071;48.140;11.516;2023-02-14T04:08:28;97320.0;;;0.3;89.9
50166;BME280;36071;48.140;11.516;2023-02-14T04:18:28;97320.0;;;0.3;90.5
50166;BME280;36071;48.140;11.516;2023-02-14T04:23:27;97320.0;;;0.2;88.8
50166;BME280;36071;48.140;11.516;2023-02-14T04:28:27;97320.0;;;0.3;90.2
50166;BME280;36071;48.140;11.516;2023-02-14T04:33:27;97320.0;;;0.2;90.6
50166;BME280;36071;48.140;11.516;2023-02-14T04:38:28;97310.0;;;0.1;90.1
50166;BME280;36071;48.140;11.516;2023-02-14T04:43:27;97320.0;;;0.1;89.6
50166;BME280;36071;48.140;11.516;2023-02-14T04:48:27;97310.0;;;-0.1;89.8
50166;BME280;36071;48.140;11.516;2023-02-14T04:53:27;97300.0;;;-0.1;92.1
50166;BME280;36071;48.140;11.516;2023-02-14T04:58:27;97290.0;;;-0.1;90.2
50166;BME280;36071;48.140;11.516;2023-02-14T05:03:27;97290.0;;;-0.3;90.6
50166;BME280;36071;48.140;11.516;2023-02-14T05:08:27;97300.0;;;-0.1;90.0
50166;BME280;36071;48.140;11.516;2023-02-14T05:13:27;97280.0;;;-0.2;89.3
50166;BME280;36071;48.140;11.516;2023-02-14T05:18:27;97280.0;;;-0.3;89.9
50166;BME280;36071;48.140;11.516;2023-02-14T05:23:27;97280.0;;;-0.2;90.5
50166;BME280;36071;48.140;11.516;2023-02-14T05:28:27;97280.0;;;-0.3;91.3
50166;BME280;36071;48.140;11.516;2023-02-14T05:33:27;97280.0;;;-0.2;89.4
50166;BME280;36071;48.140;11.516;2023-02-14T05:38:28;97270.0;;;-0.3;89.7
50166;BME280;36071;48.140;11.516;2023-02-14T05:43:28;97280.0;;;-0.3;90.5
50166;BME280;36071;48.140;11.516;2023-02-14T05:48:27;97280.0;;;-0.2;89.2
50166;BME280;36071;48.140;11.516;2023-02-14T05:53:27;97290.0;;;-0.2;90.5
50166;BME280;36071;48.140;11.516;2023-02-14T05:58:29;97300.0;;;-0.3;90.4
50166;BME280;36071;48.140;11.516;2023-02-14T06:03:27;97300.0;;;-0.3;90.7
50166;BME280;36071;48.140;11.516;2023-02-14T06:08:27;97300.0;;;-0.4;89.4
50166;BME280;36071;48.140;11.516;2023-02-14T06:13:27;97300.0;;;-0.5;90.7
50166;BME280;36071;48.140;11.516;2023-02-14T06:18:27;97300.0;;;-0.4;89.7
50166;BME280;36071;48.140;11.516;2023-02-14T06:23:27;97310.0;;;-0.4;89.5
50166;BME280;36071;48.140;11.516;2023-02-14T06:28:27;97310.0;;;-0.4;90.3
50166;BME280;36071;48.140;11.516;2023-02-14T06:33:27;97300.0;;;-0.5;90.8
50166;BME280;36071;48.140;11.516;2023-02-14T06:38:27;97310.0;;;-0.5;90.6
50166;BME280;36071;48.140;11.516;2023-02-14T06:43:27;97310.0;;;-0.4;91.2
50166;BME280;36071;48.140;11.516;2023-02-14T06:48:28;97310.0;;;-0.4;90.4
50166;BME280;36071;48.140;11.516;2023-02-14T06:53:27;97320.0;;;-0.3;90.1
50166;BME280;36071;48.140;11.516;2023-02-14T06:58:27;97310.0;;;-0.3;89.7
50166;BME280;36071;48.140;11.516;2023-02-14T07:03:27;97310.0;;;-0.2;88.3
50166;BME280;36071;48.140;11.516;2023-02-14T07:08:27;97300.0;;;-0.1;87.9
50166;BME280;36071;48.140;11.516;2023-02-14T07:13:27;97300.0;;;-0.3;88.0
50166;BME280;36071;48.140;11.516;2023-02-14T07:18:27;97310.0;;;-0.3;89.8
50166;BME280;36071;48.140;11.516;2023-02-14T07:23:28;97300.0;;;-0.2;88.6
50166;BME280;36071;48.140;11.516;2023-02-14T07:28:28;97300.0;;;-0.2;87.8
50166;BME280;36071;48.140;11.516;2023-02-14T07:33:27;97300.0;;;-0.3;87.9
50166;BME280;36071;48.140;11.516;2023-02-14T07:38:27;97300.0;;;-0.2;88.5
50166;BME280;36071;48.140;11.516;2023-02-14T07:43:27;97300.0;;;-0.3;89.1
50166;BME280;36071;48.140;11.516;2023-02-14T07:48:27;97290.0;;;0.0;88.6
50166;BME280;36071;48.140;11.516;2023-02-14T07:53:27;97280.0;;;0.1;87.9
50166;BME280;36071;48.140;11.516;2023-02-14T07:58:27;97280.0;;;0.1;87.2
50166;BME280;36071;48.140;11.516;2023-02-14T08:03:27;97270.0;;;0.1;85.9
50166;BME280;36071;48.140;11.516;2023-02-14T08:08:28;97270.0;;;-0.1;87.7
50166;BME280;36071;48.140;11.516;2023-02-14T08:13:28;97270.0;;;-0.1;86.4
50166;BME280;36071;48.140;11.516;2023-02-14T08:18:27;97260.0;;;-0.1;87.5
50166;BME280;36071;48.140;11.516;2023-02-14T08:23:28;97260.0;;;-0.2;87.8
50166;BME280;36071;48.140;11.516;2023-02-14T08:28:27;97260.0;;;0.2;88.8
50166;BME280;36071;48.140;11.516;2023-02-14T08:33:28;97270.0;;;0.2;86.5
50166;BME280;36071;48.140;11.516;2023-02-14T08:38:28;97260.0;;;0.3;85.3
50166;BME280;36071;48.140;11.516;2023-02-14T08:43:27;97270.0;;;0.2;85.1
50166;BME280;36071;48.140;11.516;2023-02-14T08:48:27;97260.0;;;0.2;85.5
50166;BME280;36071;48.140;11.516;2023-02-14T08:53:29;97190.0;;;-0.1;86.2
50166;BME280;36071;48.140;11.516;2023-02-14T08:58:27;97280.0;;;0.3;86.7
50166;BME280;36071;48.140;11.516;2023-02-14T09:03:27;97280.0;;;0.5;86.7
50166;BME280;36071;48.140;11.516;2023-02-14T09:08:27;97280.0;;;0.6;86.4
50166;BME280;36071;48.140;11.516;2023-02-14T09:13:27;97290.0;;;0.8;85.0
50166;BME280;36071;48.140;11.516;2023-02-14T09:18:27;97290.0;;;1.1;85.0
50166;BME280;36071;48.140;11.516;2023-02-14T09:23:27;97280.0;;;1.6;81.1
50166;BME280;36071;48.140;11.516;2023-02-14T09:28:28;97280.0;;;2.3;78.0
50166;BME280;36071;48.140;11.516;2023-02-14T09:33:27;97270.0;;;2.3;76.9
50166;BME280;36071;48.140;11.516;2023-02-14T09:38:27;97260.0;;;3.8;71.3
50166;BME280;36071;48.140;11.516;2023-02-14T09:43:29;97260.0;;;4.4;67.1
50166;BME280;36071;48.140;11.516;2023-02-14T09:48:28;97260.0;;;7.4;58.3
50166;BME280;36071;48.140;11.516;2023-02-14T09:53:28;97250.0;;;8.1;54.6
50166;BME280;36071;48.140;11.516;2023-02-14T09:58:28;97250.0;;;8.1;53.9
50166;BME280;36071;48.140;11.516;2023-02-14T10:03:31;97260.0;;;9.4;50.2
50166;BME280;36071;48.140;11.516;2023-02-14T10:08:31;97250.0;;;9.5;49.9
50166;BME280;36071;48.140;11.516;2023-02-14T10:13:28;97250.0;;;8.7;55.1
50166;BME280;36071;48.140;11.516;2023-02-14T10:18:28;97250.0;;;9.1;51.1
50166;BME280;36071;48.140;11.516;2023-02-14T10:23:29;97240.0;;;9.1;51.7
50166;BME280;36071;48.140;11.516;2023-02-14T10:28:30;97230.0;;;10.2;49.4
50166;BME280;36071;48.140;11.516;2023-02-14T10:33:28;97230.0;;;10.4;49.0
50166;BME280;36071;48.140;11.516;2023-02-14T10:38:31;97230.0;;;11.5;45.5
50166;BME280;36071;48.140;11.516;2023-02-14T10:43:29;97220.0;;;12.4;43.2
50166;BME280;36071;48.140;11.516;2023-02-14T10:48:42;97220.0;;;13.2;42.1
50166;BME280;36071;48.140;11.516;2023-02-14T10:53:30;97210.0;;;13.9;40.6
50166;BME280;36071;48.140;11.516;2023-02-14T10:58:28;97200.0;;;13.5;41.2
50166;BME280;36071;48.140;11.516;2023-02-14T11:03:27;97190.0;;;14.3;40.7
50166;BME280;36071;48.140;11.516;2023-02-14T11:08:30;97190.0;;;15.0;38.6
50166;BME280;36071;48.140;11.516;2023-02-14T11:13:29;97190.0;;;16.0;37.4
50166;BME280;36071;48.140;11.516;2023-02-14T11:18:28;97180.0;;;15.7;36.4
50166;BME280;36071;48.140;11.516;2023-02-14T11:23:30;97170.0;;;16.8;35.9
50166;BME280;36071;48.140;11.516;2023-02-14T11:33:31;97150.0;;;16.1;36.6
50166;BME280;36071;48.140;11.516;2023-02-14T11:38:28;97140.0;;;18.2;32.4
50166;BME280;36071;48.140;11.516;2023-02-14T11:43:29;97140.0;;;17.0;35.0
50166;BME280;36071;48.140;11.516;2023-02-14T11:48:27;97130.0;;;16.8;35.4
50166;BME280;36071;48.140;11.516;2023-02-14T11:53:28;97130.0;;;16.4;35.6
50166;BME280;36071;48.140;11.516;2023-02-14T11:58:30;97130.0;;;15.7;36.0
50166;BME280;36071;48.140;11.516;2023-02-14T12:03:28;97120.0;;;14.5;38.4
50166;BME280;36071;48.140;11.516;2023-02-14T12:08:28;97120.0;;;14.1;40.3
50166;BME280;36071;48.140;11.516;2023-02-14T12:13:28;97120.0;;;13.9;40.1
50166;BME280;36071;48.140;11.516;2023-02-14T12:18:33;97110.0;;;13.5;40.5
50166;BME280;36071;48.140;11.516;2023-02-14T12:23:29;97100.0;;;13.9;40.0
50166;BME280;36071;48.140;11.516;2023-02-14T12:28:28;97100.0;;;13.3;40.8
50166;BME280;36071;48.140;11.516;2023-02-14T12:33:27;97100.0;;;13.9;40.3
50166;BME280;36071;48.140;11.516;2023-02-14T12:38:29;97090.0;;;13.3;41.0
50166;BME280;36071;48.140;11.516;2023-02-14T12:43:33;97080.0;;;13.6;41.0
50166;BME280;36071;48.140;11.516;2023-02-14T12:48:31;97080.0;;;13.7;40.6
50166;BME280;36071;48.140;11.516;2023-02-14T12:53:46;97080.0;;;13.7;40.0
50166;BME280;36071;48.140;11.516;2023-02-14T12:58:30;97070.0;;;14.2;39.6
50166;BME280;36071;48.140;11.516;2023-02-14T13:03:40;97070.0;;;14.1;40.1
50166;BME280;36071;48.140;11.516;2023-02-14T13:08:32;97070.0;;;14.0;39.7
50166;BME280;36071;48.140;11.516;2023-02-14T13:13:30;97060.0;;;13.9;39.9
50166;BME280;36071;48.140;11.516;2023-02-14T13:18:31;97050.0;;;13.8;39.9
50166;BME280;36071;48.140;11.516;2023-02-14T13:28:28;97040.0;;;14.5;39.1
50166;BME280;36071;48.140;11.516;2023-02-14T13:33:29;97030.0;;;14.1;40.4
50166;BME280;36071;48.140;11.516;2023-02-14T13:38:27;97040.0;;;14.5;39.5
50166;BME280;36071;48.140;11.516;2023-02-14T13:43:44;97040.0;;;14.4;39.8
50166;BME280;36071;48.140;11.516;2023-02-14T13:48:27;97030.0;;;14.6;39.1
50166;BME280;36071;48.140;11.516;2023-02-14T13:53:29;97030.0;;;14.3;39.4
50166;BME280;36071;48.140;11.516;2023-02-14T13:58:27;97020.0;;;13.9;39.6
50166;BME280;36071;48.140;11.516;2023-02-14T14:08:36;97020.0;;;13.9;39.7
50166;BME280;36071;48.140;11.516;2023-02-14T14:13:52;97020.0;;;14.2;39.7
50166;BME280;36071;48.140;11.516;2023-02-14T14:18:30;97010.0;;;14.0;39.9
50166;BME280;36071;48.140;11.516;2023-02-14T14:23:29;97010.0;;;13.8;40.3
50166;BME280;36071;48.140;11.516;2023-02-14T14:28:29;97010.0;;;13.8;40.2
50166;BME280;36071;48.140;11.516;2023-02-14T14:33:28;97010.0;;;13.5;41.2
50166;BME280;36071;48.140;11.516;2023-02-14T14:38:28;97000.0;;;13.3;41.5
50166;BME280;36071;48.140;11.516;2023-02-14T14:43:28;96990.0;;;13.1;42.3
50166;BME280;36071;48.140;11.516;2023-02-14T14:48:30;96990.0;;;13.0;42.1
50166;BME280;36071;48.140;11.516;2023-02-14T14:53:31;96990.0;;;13.2;41.5
50166;BME280;36071;48.140;11.516;2023-02-14T14:58:29;96990.0;;;12.6;42.5
50166;BME280;36071;48.140;11.516;2023-02-14T15:03:35;96980.0;;;12.5;42.8
50166;BME280;36071;48.140;11.516;2023-02-14T15:08:29;96980.0;;;12.3;43.4
50166;BME280;36071;48.140;11.516;2023-02-14T15:13:30;96980.0;;;12.1;44.0
50166;BME280;36071;48.140;11.516;2023-02-14T15:18:27;96990.0;;;11.8;44.4
50166;BME280;36071;48.140;11.516;2023-02-14T15:23:27;96980.0;;;11.8;45.1
50166;BME280;36071;48.140;11.516;2023-02-14T15:28:28;96980.0;;;11.5;45.3
50166;BME280;36071;48.140;11.516;2023-02-14T15:33:28;96990.0;;;11.1;46.1
50166;BME280;36071;48.140;11.516;2023-02-14T15:38:28;96990.0;;;10.9;47.0
50166;BME280;36071;48.140;11.516;2023-02-14T15:43:29;96990.0;;;10.4;47.9
50166;BME280;36071;48.140;11.516;2023-02-14T15:48:28;97000.0;;;10.1;48.7
50166;BME280;36071;48.140;11.516;2023-02-14T15:53:30;97000.0;;;10.1;49.2
50166;BME280;36071;48.140;11.516;2023-02-14T15:58:29;97000.0;;;9.7;50.0
50166;BME280;36071;48.140;11.516;2023-02-14T16:03:29;97000.0;;;9.4;50.7
50166;BME280;36071;48.140;11.516;2023-02-14T16:08:28;97000.0;;;9.3;51.4
50166;BME280;36071;48.140;11.516;2023-02-14T16:13:28;97000.0;;;9.1;51.7
50166;BME280;36071;48.140;11.516;2023-02-14T16:18:32;97000.0;;;8.8;52.4
50166;BME280;36071;48.140;11.516;2023-02-14T16:23:28;97000.0;;;8.6;53.4
50166;BME280;36071;48.140;11.516;2023-02-14T16:28:28;97000.0;;;8.5;53.4
50166;BME280;36071;48.140;11.516;2023-02-14T16:33:28;97000.0;;;8.1;54.1
50166;BME280;36071;48.140;11.516;2023-02-14T16:38:27;97000.0;;;7.8;54.7
50166;BME280;36071;48.140;11.516;2023-02-14T16:43:27;97010.0;;;7.7;55.0
50166;BME280;36071;48.140;11.516;2023-02-14T16:48:28;97010.0;;;7.4;56.0
50166;BME280;36071;48.140;11.516;2023-02-14T16:53:27;97020.0;;;7.4;55.6
50166;BME280;36071;48.140;11.516;2023-02-14T16:58:30;97010.0;;;7.3;55.5
50166;BME280;36071;48.140;11.516;2023-02-14T17:03:29;97020.0;;;7.0;56.5
50166;BME280;36071;48.140;11.516;2023-02-14T17:08:28;97030.0;;;6.5;57.9
50166;BME280;36071;48.140;11.516;2023-02-14T17:13:27;97030.0;;;6.3;59.1
50166;BME280;36071;48.140;11.516;2023-02-14T17:18:28;97030.0;;;6.1;60.1
50166;BME280;36071;48.140;11.516;2023-02-14T17:23:28;97040.0;;;6.0;60.2
50166;BME280;36071;48.140;11.516;2023-02-14T17:28:27;97040.0;;;5.6;62.6
50166;BME280;36071;48.140;11.516;2023-02-14T17:33:28;97040.0;;;5.6;63.5
50166;BME280;36071;48.140;11.516;2023-02-14T17:38:28;97040.0;;;5.7;64.2
50166;BME280;36071;48.140;11.516;2023-02-14T17:43:27;97030.0;;;5.7;64.4
50166;BME280;36071;48.140;11.516;2023-02-14T17:48:27;97030.0;;;5.6;64.7
50166;BME280;36071;48.140;11.516;2023-02-14T17:53:27;97030.0;;;5.6;65.3
50166;BME280;36071;48.140;11.516;2023-02-14T17:58:27;97040.0;;;5.5;66.1
50166;BME280;36071;48.140;11.516;2023-02-14T18:03:27;97040.0;;;5.3;66.8
50166;BME280;36071;48.140;11.516;2023-02-14T18:08:28;97040.0;;;5.2;67.7
50166;BME280;36071;48.140;11.516;2023-02-14T18:13:28;97030.0;;;5.2;68.0
50166;BME280;36071;48.140;11.516;2023-02-14T18:18:27;97030.0;;;5.1;68.6
50166;BME280;36071;48.140;11.516;2023-02-14T18:23:28;97030.0;;;5.0;68.8
50166;BME280;36071;48.140;11.516;2023-02-14T18:28:27;97030.0;;;4.9;69.7
50166;BME280;36071;48.140;11.516;2023-02-14T18:33:28;97030.0;;;4.9;69.5
50166;BME280;36071;48.140;11.516;2023-02-14T18:38:28;97020.0;;;4.8;70.4
50166;BME280;36071;48.140;11.516;2023-02-14T18:43:28;97010.0;;;5.1;69.1
50166;BME280;36071;48.140;11.516;2023-02-14T18:48:28;97010.0;;;4.8;70.7
50166;BME280;36071;48.140;11.516;2023-02-14T18:53:28;97020.0;;;4.7;71.3
50166;BME280;36071;48.140;11.516;2023-02-14T18:58:27;97010.0;;;4.7;71.8
50166;BME280;36071;48.140;11.516;2023-02-14T19:03:27;97010.0;;;4.8;71.0
50166;BME280;36071;48.140;11.516;2023-02-14T19:08:28;97010.0;;;4.6;71.9
50166;BME280;36071;48.140;11.516;2023-02-14T19:13:28;97000.0;;;4.5;72.6
50166;BME280;36071;48.140;11.516;2023-02-14T19:18:27;97000.0;;;4.4;73.0
50166;BME280;36071;48.140;11.516;2023-02-14T19:23:27;97000.0;;;4.6;72.1
50166;BME280;36071;48.140;11.516;2023-02-14T19:28:28;96990.0;;;4.3;72.6
50166;BME280;36071;48.140;11.516;2023-02-14T19:33:27;96990.0;;;4.3;73.2
50166;BME280;36071;48.140;11.516;2023-02-14T19:38:28;97000.0;;;4.3;73.6
50166;BME280;36071;48.140;11.516;2023-02-14T19:43:28;96980.0;;;4.3;72.5
50166;BME280;36071;48.140;11.516;2023-02-14T19:48:27;96980.0;;;4.3;73.8
50166;BME280;36071;48.140;11.516;2023-02-14T19:53:27;96980.0;;;4.1;74.3
50166;BME280;36071;48.140;11.516;2023-02-14T19:58:28;96980.0;;;4.1;74.4
50166;BME280;36071;48.140;11.516;2023-02-14T20:03:27;96990.0;;;3.9;75.0
50166;BME280;36071;48.140;11.516;2023-02-14T20:08:27;96970.0;;;3.8;75.6
50166;BME280;36071;48.140;11.516;2023-02-14T20:13:28;96970.0;;;3.7;76.1
50166;BME280;36071;48.140;11.516;2023-02-14T20:18:27;96980.0;;;3.9;74.9
50166;BME280;36071;48.140;11.516;2023-02-14T20:23:28;96970.0;;;3.7;76.7
50166;BME280;36071;48.140;11.516;2023-02-14T20:28:28;96970.0;;;3.8;74.7
50166;BME280;36071;48.140;11.516;2023-02-14T20:33:27;96970.0;;;3.6;76.3
50166;BME280;36071;48.140;11.516;2023-02-14T20:38:27;96960.0;;;3.5;76.6
50166;BME280;36071;48.140;11.516;2023-02-14T20:43:28;96950.0;;;3.5;75.6
50166;BME280;36071;48.140;11.516;2023-02-14T20:48:28;96950.0;;;3.3;76.9
50166;BME280;36071;48.140;11.516;2023-02-14T20:53:27;96950.0;;;3.5;76.2
50166;BME280;36071;48.140;11.516;2023-02-14T20:58:28;96950.0;;;3.5;75.3
50166;BME280;36071;48.140;11.516;2023-02-14T21:03:27;96940.0;;;3.5;75.9
50166;BME280;36071;48.140;11.516;2023-02-14T21:08:28;96940.0;;;3.4;75.4
50166;BME280;36071;48.140;11.516;2023-02-14T21:13:27;96930.0;;;3.4;76.0
50166;BME280;36071;48.140;11.516;2023-02-14T21:18:28;96930.0;;;3.1;76.2
50166;BME280;36071;48.140;11.516;2023-02-14T21:23:27;96920.0;;;3.1;76.7
50166;BME280;36071;48.140;11.516;2023-02-14T21:28:27;96930.0;;;3.1;75.2
50166;BME280;36071;48.140;11.516;2023-02-14T21:33:28;96930.0;;;3.0;76.1
50166;BME280;36071;48.140;11.516;2023-02-14T21:38:27;96940.0;;;2.9;76.1
50166;BME280;36071;48.140;11.516;2023-02-14T21:43:27;96930.0;;;2.6;78.1
50166;BME280;36071;48.140;11.516;2023-02-14T21:48:28;96920.0;;;2.6;78.3
50166;BME280;36071;48.140;11.516;2023-02-14T21:53:28;96910.0;;;2.7;79.7
50166;BME280;36071;48.140;11.516;2023-02-14T21:58:27;96910.0;;;2.8;78.2
50166;BME280;36071;48.140;11.516;2023-02-14T22:03:27;96910.0;;;2.7;78.1
50166;BME280;36071;48.140;11.516;2023-02-14T22:08:28;96900.0;;;2.8;77.7
50166;BME280;36071;48.140;11.516;2023-02-14T22:13:27;96900.0;;;2.9;78.4
50166;BME280;36071;48.140;11.516;2023-02-14T22:18:28;96900.0;;;2.5;80.2
50166;BME280;36071;48.140;11.516;2023-02-14T22:23:28;96880.0;;;2.7;80.3
50166;BME280;36071;48.140;11.516;2023-02-14T22:28:27;96880.0;;;2.8;78.0
50166;BME280;36071;48.140;11.516;2023-02-14T22:33:27;96880.0;;;2.5;80.7
50166;BME280;36071;48.140;11.516;2023-02-14T22:38:27;96880.0;;;2.6;80.9
50166;BME280;36071;48.140;11.516;2023-02-14T22:43:27;96880.0;;;2.8;79.5
50166;BME280;36071;48.140;11.516;2023-02-14T22:48:28;96880.0;;;2.7;79.7
50166;BME280;36071;48.140;11.516;2023-02-14T22:53:27;96870.0;;;2.6;80.5
50166;BME280;36071;48.140;11.516;2023-02-14T22:58:27;96880.0;;;2.7;78.6
50166;BME280;36071;48.140;11.516;2023-02-14T23:03:27;96810.0;;;2.2;80.0
50166;BME280;36071;48.140;11.516;2023-02-14T23:08:27;96880.0;;;2.8;78.4
50166;BME280;36071;48.140;11.516;2023-02-14T23:13:27;96870.0;;;2.8;78.6
50166;BME280;36071;48.140;11.516;2023-02-14T23:18:27;96870.0;;;2.7;79.4
50166;BME280;36071;48.140;11.516;2023-02-14T23:23:29;96870.0;;;2.5;81.3
50166;BME280;36071;48.140;11.516;2023-02-14T23:28:27;96870.0;;;2.6;80.8
50166;BME280;36071;48.140;11.516;2023-02-14T23:33:27;96860.0;;;2.5;79.5
50166;BME280;36071;48.140;11.516;2023-02-14T23:38:27;96860.0;;;2.6;80.2
50166;BME280;36071;48.140;11.516;2023-02-14T23:43:28;96860.0;;;2.7;79.0
50166;BME280;36071;48.140;11.516;2023-02-14T23:48:27;96860.0;;;2.6;79.2
50166;BME280;36071;48.140;11.516;2023-02-14T23:53:27;96840.0;;;2.5;79.1
50166;BME280;36071;48.140;11.516;2023-02-14T23:58:28;96840.0;;;2.5;79.6
